Time;durP1;ratioP1;P1;durP2;ratioP2;P2;SDS_P1;SDS_P2;PMS_P1;PMS_P2;Temp;Humidity;BMP_temperature;BMP_pressure;BME280_temperature;BME280_humidity;BME280_pressure;Samples;Min_cycle;Max_cycle;Signal;HPM_P1;HPM_P2
2021/01/02 00:01:43;;;;;;;11.52;4.75;;;5.00;99.90;;;;;;5055172;28;20059;-74
2021/01/02 00:04:50;;;;;;;11.02;5.22;;;5.00;99.90;;;;;;5054701;28;20056;-75
2021/01/02 00:07:47;;;;;;;8.70;5.05;;;4.90;99.90;;;;;;5053360;28;20050;-75
2021/01/02 00:10:19;;;;;;;9.23;5.00;;;5.00;99.90;;;;;;5049432;28;20502;-75
2021/01/02 00:12:54;;;;;;;8.73;5.13;;;4.90;99.90;;;;;;5047770;28;20029;-75
2021/01/02 00:15:31;;;;;;;7.38;4.38;;;4.90;99.90;;;;;;5057477;28;20031;-75
2021/01/02 00:18:16;;;;;;;7.82;4.95;;;4.80;99.90;;;;;;5059162;28;20025;-74
2021/01/02 00:21:00;;;;;;;8.00;4.57;;;4.80;99.90;;;;;;5049734;28;20045;-75
2021/01/02 00:23:44;;;;;;;9.57;5.53;;;4.80;99.90;;;;;;5057807;28;20082;-75
2021/01/02 00:26:19;;;;;;;8.88;4.95;;;4.70;99.90;;;;;;5064838;28;20098;-75
2021/01/02 00:28:48;;;;;;;8.43;4.70;;;4.80;99.90;;;;;;5047827;28;20487;-75
2021/01/02 00:31:21;;;;;;;8.23;4.60;;;4.70;99.90;;;;;;5048625;28;20446;-75
2021/01/02 00:34:05;;;;;;;11.32;5.18;;;4.70;99.90;;;;;;5065753;28;20249;-75
2021/01/02 00:36:45;;;;;;;9.75;5.20;;;4.60;99.90;;;;;;5060945;28;20036;-75
2021/01/02 00:39:31;;;;;;;11.00;5.00;;;4.60;99.90;;;;;;5051872;28;20021;-75
2021/01/02 00:41:57;;;;;;;9.35;5.32;;;4.50;99.90;;;;;;5058368;28;20025;-75
2021/01/02 00:44:24;;;;;;;7.82;4.50;;;4.50;99.90;;;;;;5056125;28;20075;-75
2021/01/02 00:46:50;;;;;;;6.97;4.47;;;4.50;99.90;;;;;;5060166;28;20021;-75
2021/01/02 00:49:16;;;;;;;10.88;4.35;;;4.40;99.90;;;;;;5068372;28;20364;-75
2021/01/02 00:51:56;;;;;;;10.60;4.90;;;4.30;99.90;;;;;;5060672;28;20072;-75
2021/01/02 00:54:46;;;;;;;9.32;4.47;;;4.40;99.90;;;;;;5055146;28;20037;-75
2021/01/02 00:57:30;;;;;;;8.75;4.88;;;4.30;99.90;;;;;;5056447;28;20028;-74
2021/01/02 01:00:05;;;;;;;8.05;4.57;;;4.20;99.90;;;;;;5058665;28;20036;-75
2021/01/02 01:03:00;;;;;;;9.43;4.60;;;4.20;99.90;;;;;;5057500;28;20035;-75
2021/01/02 01:05:30;;;;;;;8.82;4.47;;;4.10;99.90;;;;;;5051859;28;20695;-75
2021/01/02 01:07:56;;;;;;;7.45;4.32;;;4.10;99.90;;;;;;5059457;28;20390;-75
2021/01/02 01:10:27;;;;;;;7.40;4.20;;;4.10;99.90;;;;;;5055936;28;20021;-75
2021/01/02 01:13:19;;;;;;;11.10;4.75;;;4.00;99.90;;;;;;5062756;28;20417;-75
2021/01/02 01:15:45;;;;;;;9.00;4.53;;;3.90;99.90;;;;;;5054430;28;20135;-75
2021/01/02 01:18:16;;;;;;;7.60;4.15;;;3.80;99.90;;;;;;5053933;28;20162;-75
2021/01/02 01:21:06;;;;;;;8.15;4.28;;;3.80;99.90;;;;;;5068888;28;20048;-75
2021/01/02 01:24:09;;;;;;;9.40;4.57;;;3.80;99.90;;;;;;5057871;28;20024;-75
2021/01/02 01:27:12;;;;;;;7.45;3.92;;;3.60;99.90;;;;;;5060176;28;20055;-75
2021/01/02 01:29:59;;;;;;;7.90;4.15;;;3.60;99.90;;;;;;5052576;28;20013;-75
2021/01/02 01:32:27;;;;;;;7.05;4.20;;;3.60;99.90;;;;;;5050546;28;20029;-74
2021/01/02 01:35:01;;;;;;;7.65;4.22;;;3.30;99.90;;;;;;5053757;28;20040;-76
2021/01/02 01:37:29;;;;;;;10.32;3.85;;;3.30;99.90;;;;;;5067787;28;20443;-76
2021/01/02 01:39:56;;;;;;;8.32;4.70;;;3.10;99.90;;;;;;5063306;28;20013;-76
2021/01/02 01:42:43;;;;;;;7.28;4.13;;;2.90;99.90;;;;;;5064989;28;20025;-75
2021/01/02 01:45:21;;;;;;;11.35;4.07;;;2.80;99.90;;;;;;5054460;28;20540;-76
2021/01/02 01:48:11;;;;;;;6.90;4.25;;;2.70;99.90;;;;;;5064752;28;20035;-76
2021/01/02 01:50:58;;;;;;;7.60;3.85;;;2.60;99.90;;;;;;5057409;28;20020;-76
2021/01/02 01:53:49;;;;;;;9.15;4.22;;;2.60;99.90;;;;;;5064074;28;20032;-76
2021/01/02 01:56:24;;;;;;;10.00;4.43;;;2.60;99.90;;;;;;5062678;28;20048;-76
2021/01/02 01:58:53;;;;;;;8.43;4.35;;;2.50;99.90;;;;;;5058531;28;20070;-75
2021/01/02 02:01:26;;;;;;;7.32;4.63;;;2.40;99.90;;;;;;5056019;28;20025;-75
2021/01/02 02:04:10;;;;;;;8.68;5.10;;;2.40;99.90;;;;;;5058645;28;20071;-75
2021/01/02 02:06:37;;;;;;;7.07;4.40;;;2.50;99.90;;;;;;5066786;28;20116;-75
2021/01/02 02:09:04;;;;;;;8.70;4.78;;;2.50;99.90;;;;;;5063236;28;20032;-75
2021/01/02 02:11:35;;;;;;;10.77;4.30;;;2.60;99.90;;;;;;5066159;28;20070;-75
2021/01/02 02:14:13;;;;;;;6.10;3.47;;;2.70;99.90;;;;;;5069548;28;20107;-76
2021/01/02 02:16:44;;;;;;;8.85;3.80;;;2.70;99.90;;;;;;5052056;28;20068;-75
2021/01/02 02:19:34;;;;;;;6.93;3.67;;;2.90;99.90;;;;;;5058754;28;20063;-75
2021/01/02 02:22:03;;;;;;;7.97;3.92;;;3.00;99.90;;;;;;5057987;28;20045;-76
2021/01/02 02:24:32;;;;;;;6.88;3.90;;;2.90;99.90;;;;;;5049131;28;20035;-76
2021/01/02 02:26:59;;;;;;;7.28;3.55;;;3.10;99.90;;;;;;5055836;28;20032;-76
2021/01/02 02:29:36;;;;;;;6.40;3.90;;;3.00;99.90;;;;;;5049997;28;20075;-76
2021/01/02 02:32:06;;;;;;;5.43;3.47;;;3.00;99.90;;;;;;5049603;28;20039;-76
2021/01/02 02:34:33;;;;;;;6.28;3.85;;;3.10;99.90;;;;;;5061635;28;20094;-75
2021/01/02 02:36:58;;;;;;;9.32;3.70;;;3.20;99.90;;;;;;5067249;28;20136;-75
2021/01/02 02:39:24;;;;;;;9.70;4.57;;;3.20;99.90;;;;;;5049659;28;20638;-76
2021/01/02 02:41:58;;;;;;;6.93;4.28;;;3.20;99.90;;;;;;5049040;28;20025;-76
2021/01/02 02:44:30;;;;;;;6.13;3.78;;;3.10;99.90;;;;;;5050618;28;20492;-76
2021/01/02 02:46:58;;;;;;;6.45;3.78;;;3.00;99.90;;;;;;5058755;28;20119;-76
2021/01/02 02:49:29;;;;;;;7.25;4.47;;;3.10;99.90;;;;;;5053920;28;20111;-76
2021/01/02 02:52:16;;;;;;;8.03;4.20;;;3.10;99.90;;;;;;5058725;28;20453;-76
2021/01/02 02:54:42;;;;;;;7.20;4.18;;;3.00;99.90;;;;;;5051012;28;20295;-76
2021/01/02 02:57:09;;;;;;;9.50;4.40;;;3.00;99.90;;;;;;5068657;28;20116;-76
2021/01/02 02:59:35;;;;;;;8.13;3.95;;;2.80;99.90;;;;;;5057735;28;20025;-75
2021/01/02 03:02:04;;;;;;;8.48;4.32;;;2.70;99.90;;;;;;5061912;28;20024;-75
2021/01/02 03:04:34;;;;;;;7.65;4.38;;;2.40;99.90;;;;;;5051451;28;20220;-76
2021/01/02 03:07:06;;;;;;;8.40;3.97;;;2.40;99.90;;;;;;5062218;28;20037;-76
2021/01/02 03:09:32;;;;;;;;;;;2.30;99.90;;;;;;5067126;28;20032;-75
2021/01/02 03:11:58;;;;;;;7.32;3.97;;;2.20;99.90;;;;;;5052225;28;19954;-76
2021/01/02 03:14:23;;;;;;;9.38;4.43;;;2.10;99.90;;;;;;5067925;28;20031;-75
2021/01/02 03:16:54;;;;;;;8.95;4.13;;;2.10;99.90;;;;;;5062547;28;20017;-75
2021/01/02 03:19:20;;;;;;;7.45;4.38;;;2.00;99.90;;;;;;5060868;28;20025;-75
2021/01/02 03:21:45;;;;;;;6.97;4.40;;;1.90;99.90;;;;;;5048824;28;20098;-75
2021/01/02 03:24:11;;;;;;;7.93;4.53;;;1.80;99.90;;;;;;5048801;28;20025;-75
2021/01/02 03:26:36;;;;;;;6.25;4.05;;;1.70;99.90;;;;;;5059771;28;20039;-76
2021/01/02 03:29:02;;;;;;;7.47;4.60;;;1.60;99.90;;;;;;5051749;28;20074;-75
2021/01/02 03:31:27;;;;;;;7.53;4.22;;;1.60;99.90;;;;;;5055363;28;20033;-75
2021/01/02 03:33:53;;;;;;;10.45;4.85;;;1.60;99.90;;;;;;5058937;28;20117;-75
2021/01/02 03:36:18;;;;;;;8.70;4.32;;;1.60;99.90;;;;;;5057084;28;20483;-75
2021/01/02 03:38:53;;;;;;;7.90;4.45;;;1.50;99.90;;;;;;5054770;28;20534;-75
2021/01/02 03:41:19;;;;;;;10.35;4.72;;;1.60;99.90;;;;;;5053808;28;20119;-75
2021/01/02 03:43:44;;;;;;;9.48;5.32;;;1.70;99.90;;;;;;5052854;28;20116;-75
2021/01/02 03:46:10;;;;;;;9.80;5.15;;;1.70;99.90;;;;;;5053757;28;20036;-75
2021/01/02 03:48:35;;;;;;;8.55;4.93;;;1.80;99.90;;;;;;5065622;28;20037;-75
2021/01/02 03:51:01;;;;;;;6.57;4.38;;;1.80;99.90;;;;;;5061788;28;20120;-75
2021/01/02 03:53:26;;;;;;;11.00;5.30;;;1.70;99.90;;;;;;5053756;28;20029;-75
2021/01/02 03:55:52;;;;;;;10.60;5.78;;;1.60;99.90;;;;;;5049110;28;20029;-75
2021/01/02 03:58:17;;;;;;;10.05;5.63;;;1.70;99.90;;;;;;5060169;28;20063;-75
2021/01/02 04:00:43;;;;;;;10.57;5.32;;;1.80;99.90;;;;;;5059033;28;20069;-75
2021/01/02 04:03:09;;;;;;;11.73;5.05;;;1.80;99.90;;;;;;5052187;28;20033;-75
2021/01/02 04:05:34;;;;;;;10.05;5.55;;;1.80;99.90;;;;;;5061786;28;20115;-75
2021/01/02 04:08:00;;;;;;;11.52;6.03;;;1.80;99.90;;;;;;5062352;28;20478;-75
2021/01/02 04:10:26;;;;;;;9.25;5.47;;;1.80;99.90;;;;;;5063406;28;20033;-76
2021/01/02 04:12:51;;;;;;;7.90;5.15;;;1.80;99.90;;;;;;5057943;28;20032;-76
2021/01/02 04:15:17;;;;;;;9.93;5.60;;;1.80;99.90;;;;;;5067070;28;20043;-76
2021/01/02 04:17:44;;;;;;;9.45;5.43;;;1.80;99.90;;;;;;5057637;28;20115;-75
2021/01/02 04:20:10;;;;;;;9.63;5.80;;;1.80;99.90;;;;;;5059386;28;20057;-76
2021/01/02 04:22:36;;;;;;;9.77;5.38;;;1.70;99.90;;;;;;5063861;28;20020;-75
2021/01/02 04:25:02;;;;;;;11.82;5.60;;;1.80;99.90;;;;;;5064453;28;20024;-75
2021/01/02 04:27:27;;;;;;;9.80;6.15;;;1.90;99.90;;;;;;5064858;28;20028;-76
2021/01/02 04:29:53;;;;;;;10.73;5.80;;;1.90;99.90;;;;;;5052604;28;20025;-75
2021/01/02 04:32:18;;;;;;;16.77;8.18;;;2.00;99.90;;;;;;5054513;28;20039;-76
2021/01/02 04:34:43;;;;;;;15.57;8.50;;;2.10;99.90;;;;;;5051903;28;20087;-75
2021/01/02 04:37:09;;;;;;;16.90;8.30;;;2.40;99.90;;;;;;5053475;28;20029;-75
2021/01/02 04:39:34;;;;;;;19.23;8.65;;;2.60;99.90;;;;;;5063197;28;20031;-75
2021/01/02 04:42:00;;;;;;;14.55;7.47;;;2.60;99.90;;;;;;5065774;28;20040;-75
2021/01/02 04:44:27;;;;;;;20.10;8.85;;;2.60;99.90;;;;;;5058336;28;20016;-76
2021/01/02 04:46:54;;;;;;;17.40;9.07;;;2.80;99.90;;;;;;5058676;28;20064;-75
2021/01/02 04:49:20;;;;;;;17.45;8.50;;;2.90;99.90;;;;;;5062512;28;20578;-75
2021/01/02 04:51:46;;;;;;;19.98;10.60;;;2.90;99.90;;;;;;5058094;28;20028;-75
2021/01/02 04:54:13;;;;;;;18.90;9.60;;;3.00;99.90;;;;;;5070266;28;20387;-76
2021/01/02 04:56:38;;;;;;;19.90;10.57;;;3.00;99.90;;;;;;5068690;28;20040;-75
2021/01/02 04:59:12;;;;;;;20.92;11.52;;;3.10;99.90;;;;;;5066280;28;20555;-75
2021/01/02 05:01:38;;;;;;;21.08;11.25;;;3.20;99.90;;;;;;5058585;28;20020;-76
2021/01/02 05:04:05;;;;;;;23.40;11.65;;;3.30;99.90;;;;;;5061643;28;20259;-76
2021/01/02 05:06:30;;;;;;;23.17;11.45;;;3.30;99.90;;;;;;5054478;28;20048;-75
2021/01/02 05:08:56;;;;;;;20.88;11.02;;;3.40;99.90;;;;;;5055825;28;20063;-75
2021/01/02 05:11:23;;;;;;;21.98;10.57;;;3.50;99.90;;;;;;5058367;28;20144;-75
2021/01/02 05:13:49;;;;;;;18.88;10.38;;;3.50;99.90;;;;;;5062710;28;20521;-76
2021/01/02 05:16:34;;;;;;;18.75;8.60;;;3.50;99.90;;;;;;5058736;28;20032;-74
2021/01/02 05:19:05;;;;;;;16.10;8.48;;;3.50;99.90;;;;;;5047475;28;20028;-83
2021/01/02 05:21:31;;;;;;;16.15;8.15;;;3.50;99.90;;;;;;5065829;28;20371;-78
2021/01/02 05:24:06;;;;;;;16.20;7.90;;;3.60;99.90;;;;;;5055083;28;20024;-78
2021/01/02 05:26:32;;;;;;;16.27;8.18;;;3.60;99.90;;;;;;5057899;28;20025;-78
2021/01/02 05:29:28;;;;;;;14.43;7.13;;;3.60;99.90;;;;;;5056222;28;20025;-78
2021/01/02 05:32:01;;;;;;;15.35;7.22;;;3.70;99.90;;;;;;5047864;28;20486;-78
2021/01/02 05:34:28;;;;;;;16.60;8.00;;;3.70;99.90;;;;;;5057317;28;20033;-78
2021/01/02 05:37:08;;;;;;;15.50;8.25;;;3.70;99.90;;;;;;5057088;28;20028;-78
2021/01/02 05:39:37;;;;;;;14.32;7.60;;;3.70;99.90;;;;;;5056747;28;20025;-78
2021/01/02 05:42:04;;;;;;;16.38;8.30;;;3.70;99.90;;;;;;5057413;28;20089;-78
2021/01/02 05:44:36;;;;;;;16.48;8.80;;;3.70;99.90;;;;;;5056298;28;20471;-78
2021/01/02 05:47:02;;;;;;;14.85;8.32;;;3.80;99.90;;;;;;5058434;28;20061;-78
2021/01/02 05:49:37;;;;;;;15.60;8.43;;;3.90;99.90;;;;;;5056722;28;20450;-78
2021/01/02 05:52:07;;;;;;;15.75;8.30;;;3.80;99.90;;;;;;5057810;28;20020;-77
2021/01/02 05:54:34;;;;;;;12.73;7.30;;;3.80;99.90;;;;;;5056145;28;20793;-78
2021/01/02 05:57:02;;;;;;;18.10;7.93;;;3.80;99.90;;;;;;5056034;28;20039;-77
2021/01/02 05:59:35;;;;;;;12.82;7.38;;;3.70;99.90;;;;;;5056864;28;20073;-78
2021/01/02 06:02:19;;;;;;;15.43;7.32;;;3.80;99.90;;;;;;5057214;28;20033;-77
2021/01/02 06:05:10;;;;;;;12.82;7.38;;;3.80;99.90;;;;;;5055384;28;20036;-78
2021/01/02 06:07:40;;;;;;;12.00;6.65;;;3.80;99.90;;;;;;5056334;28;20013;-78
2021/01/02 06:10:08;;;;;;;12.37;6.70;;;3.70;99.90;;;;;;5056935;28;20029;-78
2021/01/02 06:12:36;;;;;;;12.95;6.78;;;3.80;99.90;;;;;;5054873;28;20476;-78
2021/01/02 06:15:21;;;;;;;15.73;6.60;;;3.80;99.90;;;;;;5071866;28;20067;-78
2021/01/02 06:17:47;;;;;;;13.80;6.93;;;3.80;99.90;;;;;;5057089;28;20040;-77
2021/01/02 06:20:14;;;;;;;11.38;6.47;;;3.80;99.90;;;;;;5056408;28;20044;-78
2021/01/02 06:22:41;;;;;;;12.52;6.85;;;3.80;99.90;;;;;;5057648;28;20075;-78
2021/01/02 06:25:08;;;;;;;13.50;6.43;;;3.90;99.90;;;;;;5057433;28;20017;-78
2021/01/02 06:27:39;;;;;;;13.73;6.70;;;3.90;99.90;;;;;;5056389;28;20029;-77
2021/01/02 06:30:05;;;;;;;11.60;6.65;;;3.90;99.90;;;;;;5057169;28;20370;-78
2021/01/02 06:32:30;;;;;;;14.48;6.80;;;3.90;99.90;;;;;;5056608;28;20039;-77
2021/01/02 06:35:07;;;;;;;10.85;6.63;;;3.90;99.90;;;;;;5055777;28;20561;-78
2021/01/02 06:37:48;;;;;;;14.80;7.00;;;3.90;99.90;;;;;;5057103;28;20036;-77
2021/01/02 06:40:24;;;;;;;13.30;6.93;;;3.90;99.90;;;;;;5055697;28;20033;-78
2021/01/02 06:43:01;;;;;;;13.45;6.65;;;3.90;99.90;;;;;;5056852;28;20033;-78
2021/01/02 06:45:36;;;;;;;13.98;7.22;;;3.90;99.90;;;;;;5054824;28;20497;-78
2021/01/02 06:48:34;;;;;;;11.60;6.28;;;3.90;99.90;;;;;;5057796;28;20031;-78
2021/01/02 06:51:02;;;;;;;10.77;6.65;;;4.00;99.90;;;;;;5023241;28;20510;-78
2021/01/02 06:53:33;;;;;;;15.35;8.27;;;3.90;99.90;;;;;;5053937;28;20029;-78
2021/01/02 06:56:06;;;;;;;15.77;8.05;;;3.90;99.90;;;;;;5054129;28;20051;-78
2021/01/02 06:58:46;;;;;;;13.45;8.05;;;3.90;99.90;;;;;;5055910;28;20446;-78
2021/01/02 07:01:18;;;;;;;17.23;8.73;;;3.90;99.90;;;;;;5056889;28;20369;-78
2021/01/02 07:03:46;;;;;;;;;;;4.10;99.90;;;;;;5057778;28;20491;-78
2021/01/02 07:06:26;;;;;;;15.55;8.18;;;4.10;99.90;;;;;;5056135;28;19923;-78
2021/01/02 07:09:11;;;;;;;13.30;7.70;;;4.10;99.90;;;;;;5055122;28;20036;-77
2021/01/02 07:12:06;;;;;;;14.65;7.82;;;4.20;99.90;;;;;;5057234;28;20134;-75
2021/01/02 07:14:32;;;;;;;12.88;7.53;;;4.00;99.90;;;;;;5053065;28;20155;-77
2021/01/02 07:17:10;;;;;;;15.05;8.18;;;4.00;99.90;;;;;;5055415;28;20115;-76
2021/01/02 07:19:47;;;;;;;13.50;7.78;;;4.00;99.90;;;;;;5055622;28;20033;-76
2021/01/02 07:22:21;;;;;;;15.05;8.35;;;4.00;99.90;;;;;;5056814;28;20035;-75
2021/01/02 07:24:52;;;;;;;15.07;8.75;;;4.00;99.90;;;;;;5057750;28;20781;-78
2021/01/02 07:27:23;;;;;;;15.13;8.30;;;4.10;99.90;;;;;;5064750;28;20483;-76
2021/01/02 07:29:53;;;;;;;15.60;7.80;;;4.00;99.90;;;;;;5060140;28;20041;-85
2021/01/02 07:32:27;;;;;;;14.98;8.02;;;4.00;99.90;;;;;;5059255;28;20033;-84
2021/01/02 07:35:18;;;;;;;14.05;8.32;;;3.90;99.90;;;;;;5057088;28;20029;-87
2021/01/02 07:37:46;;;;;;;14.25;7.40;;;4.00;99.90;;;;;;5054082;28;20175;-86
2021/01/02 07:40:17;;;;;;;13.40;8.15;;;4.00;99.90;;;;;;5056336;28;20129;-88
2021/01/02 07:42:56;;;;;;;14.27;8.35;;;3.90;99.90;;;;;;5061866;28;20047;-83
2021/01/02 07:45:23;;;;;;;15.05;8.32;;;4.00;99.90;;;;;;5057473;28;20029;-84
2021/01/02 07:47:58;;;;;;;17.67;8.00;;;4.00;99.90;;;;;;5057967;28;20021;-88
2021/01/02 07:50:25;;;;;;;15.63;8.13;;;4.10;99.90;;;;;;5052821;28;20025;-87
2021/01/02 07:52:58;;;;;;;15.45;7.40;;;4.10;99.90;;;;;;5061585;28;20081;-79
2021/01/02 07:55:25;;;;;;;12.98;7.03;;;4.20;99.90;;;;;;5066267;28;20336;-89
2021/01/02 07:57:51;;;;;;;13.05;7.72;;;4.10;99.90;;;;;;5052696;28;20021;-87
2021/01/02 08:00:18;;;;;;;15.63;7.57;;;4.20;99.90;;;;;;5058661;28;20060;-85
2021/01/02 08:02:43;;;;;;;13.85;7.85;;;4.30;99.90;;;;;;5055835;28;20036;-87
2021/01/02 08:05:13;;;;;;;17.30;8.63;;;4.20;99.90;;;;;;5059064;28;20029;-88
2021/01/02 08:07:40;;;;;;;14.43;7.90;;;4.20;99.90;;;;;;5062025;28;20083;-83
2021/01/02 08:10:12;;;;;;;14.75;8.15;;;4.20;99.90;;;;;;5053195;28;20523;-80
2021/01/02 08:12:44;;;;;;;15.55;8.73;;;4.20;99.90;;;;;;5058237;28;20472;-81
2021/01/02 08:15:10;;;;;;;15.07;8.30;;;4.20;99.90;;;;;;5059325;28;20028;-85
2021/01/02 08:17:40;;;;;;;15.65;8.57;;;4.10;99.90;;;;;;5064608;28;20045;-78
2021/01/02 08:20:06;;;;;;;16.58;9.45;;;4.10;99.90;;;;;;5058213;28;20488;-82
2021/01/02 08:22:37;;;;;;;17.17;9.35;;;4.20;99.90;;;;;;5058355;28;20028;-80
2021/01/02 08:25:13;;;;;;;14.52;8.65;;;4.20;99.90;;;;;;5059869;28;20021;-83
2021/01/02 08:27:39;;;;;;;19.45;8.73;;;4.10;99.90;;;;;;5062595;28;20068;-79
2021/01/02 08:30:08;;;;;;;16.95;8.13;;;4.10;99.90;;;;;;5057355;28;20048;-79
2021/01/02 08:32:40;;;;;;;14.73;8.68;;;4.20;99.90;;;;;;5054057;28;20059;-79
2021/01/02 08:35:17;;;;;;;16.67;9.02;;;4.10;99.90;;;;;;5069690;28;20028;-79
2021/01/02 08:37:47;;;;;;;15.77;9.02;;;4.10;99.90;;;;;;5063936;28;20029;-79
2021/01/02 08:40:14;;;;;;;15.60;8.48;;;4.20;99.90;;;;;;5059998;28;20025;-80
2021/01/02 08:42:41;;;;;;;16.90;9.32;;;4.10;99.90;;;;;;5051850;28;20036;-79
2021/01/02 08:45:08;;;;;;;20.73;9.82;;;4.10;99.90;;;;;;5062969;28;20458;-80
2021/01/02 08:47:38;;;;;;;15.95;9.40;;;4.20;99.90;;;;;;5060026;28;20123;-79
2021/01/02 08:50:14;;;;;;;17.50;9.63;;;4.10;99.90;;;;;;5062663;28;20607;-79
2021/01/02 08:52:41;;;;;;;21.63;10.35;;;4.20;99.90;;;;;;5051049;28;20040;-79
2021/01/02 08:55:15;;;;;;;16.23;9.73;;;4.10;99.90;;;;;;5058503;28;20108;-79
2021/01/02 08:57:53;;;;;;;17.88;9.52;;;4.10;99.90;;;;;;5065732;28;20115;-80
2021/01/02 09:00:25;;;;;;;15.65;9.07;;;4.10;99.90;;;;;;5062069;28;20097;-79
2021/01/02 09:03:09;;;;;;;19.42;9.52;;;4.20;99.90;;;;;;5059108;28;20356;-79
2021/01/02 09:05:39;;;;;;;21.20;9.68;;;4.20;99.90;;;;;;5056347;28;20024;-79
2021/01/02 09:08:09;;;;;;;15.25;9.07;;;4.20;99.90;;;;;;5070776;28;20052;-79
2021/01/02 09:10:42;;;;;;;18.63;10.20;;;4.30;99.90;;;;;;5060304;28;20033;-80
2021/01/02 09:13:24;;;;;;;16.52;9.23;;;4.30;99.90;;;;;;5051682;28;20047;-80
2021/01/02 09:15:52;;;;;;;15.85;8.95;;;4.40;99.90;;;;;;5059870;28;20439;-80
2021/01/02 09:18:23;;;;;;;18.30;9.70;;;4.50;99.90;;;;;;5059079;28;20021;-79
2021/01/02 09:20:48;;;;;;;19.90;9.23;;;4.40;99.90;;;;;;5051455;28;20051;-79
2021/01/02 09:23:14;;;;;;;17.35;9.30;;;4.40;99.90;;;;;;5066450;28;20024;-80
2021/01/02 09:25:40;;;;;;;17.40;9.27;;;4.40;99.90;;;;;;5059377;28;20024;-79
2021/01/02 09:28:16;;;;;;;16.45;9.38;;;4.40;99.90;;;;;;5059785;28;20036;-79
2021/01/02 09:30:43;;;;;;;15.48;9.00;;;4.30;99.90;;;;;;5055804;28;20028;-79
2021/01/02 09:33:08;;;;;;;18.85;9.82;;;4.40;99.90;;;;;;5056615;28;20040;-80
2021/01/02 09:35:35;;;;;;;18.40;9.85;;;4.40;99.90;;;;;;5055884;28;20483;-80
2021/01/02 09:38:02;;;;;;;17.98;9.63;;;4.50;99.90;;;;;;5050570;28;20029;-79
2021/01/02 09:40:27;;;;;;;16.88;9.50;;;4.60;99.90;;;;;;5051873;28;20017;-79
2021/01/02 09:42:53;;;;;;;16.02;9.20;;;4.50;99.90;;;;;;5058393;28;20017;-79
2021/01/02 09:45:18;;;;;;;18.45;9.95;;;4.60;99.90;;;;;;5053100;28;20020;-78
2021/01/02 09:47:44;;;;;;;19.17;10.65;;;4.60;99.90;;;;;;5063568;28;20021;-78
2021/01/02 09:50:10;;;;;;;18.77;11.00;;;4.80;99.90;;;;;;5059139;28;20040;-77
2021/01/02 09:52:35;;;;;;;21.02;11.07;;;4.80;99.90;;;;;;5056813;28;20021;-80
2021/01/02 09:55:01;;;;;;;20.70;10.48;;;4.80;99.90;;;;;;5058434;28;20426;-79
2021/01/02 09:57:26;;;;;;;19.75;10.93;;;4.80;99.90;;;;;;5070082;28;20514;-80
2021/01/02 09:59:55;;;;;;;18.63;11.02;;;5.00;99.90;;;;;;5055598;28;20082;-80
2021/01/02 10:02:20;;;;;;;17.63;10.38;;;4.90;99.90;;;;;;5057765;28;20083;-79
2021/01/02 10:04:47;;;;;;;19.92;10.20;;;5.00;99.90;;;;;;5052956;28;20021;-79
2021/01/02 10:07:14;;;;;;;18.90;10.95;;;4.90;99.90;;;;;;5049560;28;20116;-79
2021/01/02 10:09:42;;;;;;;18.48;10.70;;;5.00;99.90;;;;;;5052770;28;20123;-79
2021/01/02 10:12:08;;;;;;;19.10;10.25;;;4.90;99.90;;;;;;5058150;28;20041;-80
2021/01/02 10:14:35;;;;;;;20.60;10.60;;;4.90;99.90;;;;;;5054701;28;20070;-80
2021/01/02 10:17:01;;;;;;;22.58;10.63;;;5.00;99.90;;;;;;5054184;28;20029;-79
2021/01/02 10:19:27;;;;;;;20.55;10.68;;;5.00;99.90;;;;;;5058358;28;20039;-79
2021/01/02 10:21:52;;;;;;;19.02;10.90;;;5.10;99.90;;;;;;5064355;28;20028;-79
2021/01/02 10:24:17;;;;;;;19.60;10.90;;;5.20;99.90;;;;;;5052016;28;20056;-79
2021/01/02 10:26:43;;;;;;;19.48;9.85;;;5.20;99.90;;;;;;5060962;28;20024;-79
2021/01/02 10:29:08;;;;;;;20.63;10.43;;;5.20;99.90;;;;;;5062845;28;20067;-77
2021/01/02 10:31:47;;;;;;;19.35;10.07;;;5.30;99.90;;;;;;5122937;27;20890;-78
2021/01/02 10:34:13;;;;;;;20.10;10.73;;;5.30;99.90;;;;;;5103139;28;20029;-77
2021/01/02 10:36:39;;;;;;;19.60;10.45;;;5.30;99.90;;;;;;5098122;28;20189;-77
2021/01/02 10:39:05;;;;;;;17.60;10.63;;;5.40;99.90;;;;;;5098129;28;20041;-78
2021/01/02 10:41:30;;;;;;;18.75;9.90;;;5.40;99.90;;;;;;5101130;28;20440;-77
2021/01/02 10:43:56;;;;;;;20.75;10.98;;;5.50;99.90;;;;;;5089268;28;20021;-77
2021/01/02 10:46:21;;;;;;;22.63;11.23;;;5.50;99.90;;;;;;5091712;28;20032;-77
2021/01/02 10:48:47;;;;;;;20.17;10.38;;;5.60;99.90;;;;;;5093992;28;20032;-78
2021/01/02 10:51:18;;;;;;;18.48;10.20;;;5.70;99.90;;;;;;5098169;28;20028;-77
2021/01/02 10:53:44;;;;;;;19.35;10.43;;;5.80;99.90;;;;;;5098300;28;20191;-77
2021/01/02 10:56:11;;;;;;;22.52;10.70;;;5.90;99.90;;;;;;5093016;28;20024;-77
2021/01/02 10:58:37;;;;;;;17.27;10.60;;;6.00;99.90;;;;;;5089951;28;20629;-77
2021/01/02 11:01:04;;;;;;;20.10;9.93;;;6.00;99.90;;;;;;5093286;28;20070;-77
2021/01/02 11:03:30;;;;;;;24.83;10.45;;;6.10;99.90;;;;;;5101646;28;20055;-78
2021/01/02 11:05:57;;;;;;;19.00;10.57;;;6.00;99.90;;;;;;5105150;28;20031;-77
2021/01/02 11:08:22;;;;;;;20.13;11.30;;;6.00;99.90;;;;;;5103832;28;20106;-78
2021/01/02 11:10:48;;;;;;;21.80;11.27;;;6.10;99.90;;;;;;5090506;28;20118;-77
2021/01/02 11:13:13;;;;;;;17.83;10.43;;;6.00;99.90;;;;;;5093379;28;20032;-78
2021/01/02 11:15:39;;;;;;;19.50;11.10;;;6.00;99.90;;;;;;5089273;28;20463;-77
2021/01/02 11:18:05;;;;;;;25.63;12.57;;;6.00;99.90;;;;;;5098457;28;20406;-77
2021/01/02 11:20:30;;;;;;;20.63;10.63;;;6.00;99.90;;;;;;5082178;28;20498;-77
2021/01/02 11:22:56;;;;;;;22.67;10.98;;;6.00;99.90;;;;;;5077169;28;20066;-78
2021/01/02 11:25:21;;;;;;;23.10;10.65;;;6.00;99.90;;;;;;5059190;28;20495;-77
2021/01/02 11:27:47;;;;;;;20.35;10.73;;;6.10;99.90;;;;;;5084626;28;20024;-77
2021/01/02 11:30:13;;;;;;;18.65;10.75;;;6.10;99.90;;;;;;5071077;28;20103;-78
2021/01/02 11:32:40;;;;;;;19.30;10.77;;;6.20;99.90;;;;;;5069330;28;20310;-86
2021/01/02 11:35:06;;;;;;;19.40;10.45;;;6.20;99.90;;;;;;5069692;28;20025;-84
2021/01/02 11:37:32;;;;;;;19.27;10.98;;;6.30;99.90;;;;;;5065397;28;20522;-81
2021/01/02 11:39:57;;;;;;;18.40;10.32;;;6.30;99.90;;;;;;5072915;28;20036;-85
2021/01/02 11:42:23;;;;;;;18.17;10.32;;;6.40;99.90;;;;;;5056741;28;20028;-81
2021/01/02 11:44:48;;;;;;;19.05;10.23;;;6.50;99.90;;;;;;5053299;28;20028;-81
2021/01/02 11:47:14;;;;;;;21.15;10.25;;;6.60;99.90;;;;;;5053861;28;20021;-80
2021/01/02 11:49:39;;;;;;;23.60;10.75;;;6.70;99.90;;;;;;5057435;28;20029;-81
2021/01/02 11:52:07;;;;;;;22.08;10.98;;;6.90;99.90;;;;;;5049415;28;20078;-78
2021/01/02 11:54:34;;;;;;;19.33;11.05;;;7.20;99.90;;;;;;5049980;28;20100;-80
2021/01/02 11:57:00;;;;;;;18.75;9.95;;;7.20;99.90;;;;;;5049887;28;20036;-78
2021/01/02 11:59:26;;;;;;;21.23;10.23;;;7.40;99.90;;;;;;5054490;28;20025;-77
2021/01/02 12:01:54;;;;;;;19.63;10.27;;;7.40;99.90;;;;;;5044340;28;20028;-77
2021/01/02 12:04:22;;;;;;;22.10;10.68;;;7.30;99.90;;;;;;5055819;28;20119;-81
2021/01/02 12:06:48;;;;;;;20.52;10.32;;;7.30;99.90;;;;;;5062295;28;20390;-80
2021/01/02 12:09:15;;;;;;;19.48;10.73;;;7.40;99.90;;;;;;5061658;28;20032;-87
2021/01/02 12:11:43;;;;;;;19.48;10.18;;;7.50;99.90;;;;;;5056850;28;20060;-88
2021/01/02 12:14:10;;;;;;;18.35;10.45;;;7.70;99.40;;;;;;5053674;28;20059;-89
2021/01/02 12:16:41;;;;;;;22.20;9.85;;;7.80;99.40;;;;;;5056159;28;20296;-87
2021/01/02 12:19:10;;;;;;;15.80;9.85;;;7.70;98.90;;;;;;5059529;28;20040;-86
2021/01/02 12:21:35;;;;;;;17.83;10.38;;;7.80;99.50;;;;;;5061509;28;20035;-80
2021/01/02 12:24:01;;;;;;;21.75;10.15;;;7.80;99.20;;;;;;5063771;28;20102;-80
2021/01/02 12:26:27;;;;;;;20.02;10.43;;;7.80;98.90;;;;;;5064298;28;20036;-81
2021/01/02 12:28:53;;;;;;;17.83;10.23;;;7.90;98.90;;;;;;5064365;28;20483;-80
2021/01/02 12:31:22;;;;;;;20.13;10.88;;;8.00;97.70;;;;;;5062507;28;20048;-80
2021/01/02 12:33:48;;;;;;;20.30;10.25;;;8.00;96.40;;;;;;5061027;28;20030;-81
2021/01/02 12:36:19;;;;;;;21.77;11.38;;;8.10;96.10;;;;;;5059606;28;20035;-82
2021/01/02 12:38:45;;;;;;;22.95;10.68;;;7.90;97.10;;;;;;5057847;28;20478;-81
2021/01/02 12:41:17;;;;;;;19.92;10.02;;;7.90;97.00;;;;;;5062810;28;20032;-79
2021/01/02 12:43:43;;;;;;;18.33;9.45;;;8.00;96.20;;;;;;5064106;28;20064;-81
2021/01/02 12:46:11;;;;;;;18.83;8.85;;;7.90;95.90;;;;;;5062643;28;20047;-81
2021/01/02 12:48:37;;;;;;;19.13;10.23;;;7.80;96.30;;;;;;5061389;28;20060;-86
2021/01/02 12:51:04;;;;;;;17.63;9.27;;;7.70;96.20;;;;;;5063163;28;20123;-81
2021/01/02 12:53:29;;;;;;;22.20;9.70;;;7.80;96.00;;;;;;5064192;28;20086;-82
2021/01/02 12:55:55;;;;;;;21.63;10.23;;;7.60;96.30;;;;;;5061645;28;20024;-81
2021/01/02 12:58:20;;;;;;;22.35;9.52;;;7.60;97.40;;;;;;5061961;28;20033;-81
2021/01/02 13:00:46;;;;;;;19.42;9.93;;;7.60;97.30;;;;;;5061609;28;20056;-80
2021/01/02 13:03:12;;;;;;;19.80;9.55;;;7.60;96.20;;;;;;5060652;28;20032;-80
2021/01/02 13:05:37;;;;;;;21.23;9.40;;;7.50;96.20;;;;;;5064719;28;20037;-81